sensor_id;sensor_type;location;lat;lon;timestamp;pressure;altitude;pressure_sealevel;temperature;humidity
69411;BME280;56604;48.652;9.194;2023-09-19T00:02:19;95914.47;;;15.91;96.06
69411;BME280;56604;48.652;9.194;2023-09-19T00:04:44;95922.19;;;15.88;95.66
69411;BME280;56604;48.652;9.194;2023-09-19T00:07:09;95922.69;;;15.90;95.60
69411;BME280;56604;48.652;9.194;2023-09-19T00:09:35;95924.38;;;15.86;95.97
69411;BME280;56604;48.652;9.194;2023-09-19T00:12:06;95917.19;;;15.86;95.73
69411;BME280;56604;48.652;9.194;2023-09-19T00:14:32;95920.50;;;15.78;96.39
69411;BME280;56604;48.652;9.194;2023-09-19T00:17:01;95925.03;;;15.78;96.44
69411;BME280;56604;48.652;9.194;2023-09-19T00:19:31;95926.59;;;15.79;96.27
69411;BME280;56604;48.652;9.194;2023-09-19T00:21:57;95928.88;;;15.66;96.69
69411;BME280;56604;48.652;9.194;2023-09-19T00:24:23;95925.09;;;15.72;96.53
69411;BME280;56604;48.652;9.194;2023-09-19T00:26:48;95926.50;;;15.84;96.07
69411;BME280;56604;48.652;9.194;2023-09-19T00:29:13;95928.00;;;15.90;95.46
69411;BME280;56604;48.652;9.194;2023-09-19T00:31:43;95932.66;;;15.79;95.23
69411;BME280;56604;48.652;9.194;2023-09-19T00:34:08;95927.22;;;15.89;94.74
69411;BME280;56604;48.652;9.194;2023-09-19T00:36:36;95931.75;;;15.89;93.93
69411;BME280;56604;48.652;9.194;2023-09-19T00:39:03;95932.72;;;15.93;93.97
69411;BME280;56604;48.652;9.194;2023-09-19T00:41:31;95925.53;;;15.80;94.29
69411;BME280;56604;48.652;9.194;2023-09-19T00:43:56;95918.56;;;15.84;94.35
69411;BME280;56604;48.652;9.194;2023-09-19T00:46:22;95923.78;;;15.89;93.55
69411;BME280;56604;48.652;9.194;2023-09-19T00:48:47;95922.91;;;15.93;93.78
69411;BME280;56604;48.652;9.194;2023-09-19T00:51:12;95929.41;;;16.01;93.27
69411;BME280;56604;48.652;9.194;2023-09-19T00:53:39;95914.53;;;15.86;93.11
69411;BME280;56604;48.652;9.194;2023-09-19T00:56:07;95934.31;;;15.94;93.51
69411;BME280;56604;48.652;9.194;2023-09-19T00:58:33;95933.72;;;15.97;93.71
69411;BME280;56604;48.652;9.194;2023-09-19T01:01:01;95928.44;;;15.97;93.42
69411;BME280;56604;48.652;9.194;2023-09-19T01:03:27;95936.06;;;15.99;93.09
69411;BME280;56604;48.652;9.194;2023-09-19T01:05:52;95947.47;;;15.99;93.20
69411;BME280;56604;48.652;9.194;2023-09-19T01:08:18;95944.34;;;15.97;92.92
69411;BME280;56604;48.652;9.194;2023-09-19T01:10:52;95941.22;;;16.09;92.72
69411;BME280;56604;48.652;9.194;2023-09-19T01:13:31;95937.09;;;16.16;92.64
69411;BME280;56604;48.652;9.194;2023-09-19T01:16:19;95940.63;;;16.12;92.49
69411;BME280;56604;48.652;9.194;2023-09-19T01:21:45;95937.47;;;16.10;92.45
69411;BME280;56604;48.652;9.194;2023-09-19T01:27:41;95953.47;;;16.05;92.62
69411;BME280;56604;48.652;9.194;2023-09-19T01:30:14;95947.56;;;15.94;92.49
69411;BME280;56604;48.652;9.194;2023-09-19T01:32:42;95950.50;;;15.92;93.04
69411;BME280;56604;48.652;9.194;2023-09-19T01:35:08;95950.50;;;15.73;94.09
69411;BME280;56604;48.652;9.194;2023-09-19T01:37:37;95947.22;;;15.82;93.61
69411;BME280;56604;48.652;9.194;2023-09-19T01:40:07;95955.09;;;15.87;93.44
69411;BME280;56604;48.652;9.194;2023-09-19T01:45:18;95963.38;;;15.99;92.44
69411;BME280;56604;48.652;9.194;2023-09-19T01:47:55;95961.47;;;15.86;93.49
69411;BME280;56604;48.652;9.194;2023-09-19T01:53:22;95972.34;;;15.84;93.98
69411;BME280;56604;48.652;9.194;2023-09-19T01:55:50;95971.31;;;15.85;93.31
69411;BME280;56604;48.652;9.194;2023-09-19T01:58:21;95975.72;;;15.90;93.62
69411;BME280;56604;48.652;9.194;2023-09-19T02:00:49;95974.22;;;15.84;94.00
69411;BME280;56604;48.652;9.194;2023-09-19T02:03:17;95973.97;;;15.99;93.62
69411;BME280;56604;48.652;9.194;2023-09-19T02:05:49;95979.28;;;15.99;93.68
69411;BME280;56604;48.652;9.194;2023-09-19T02:08:17;95993.63;;;15.98;93.14
69411;BME280;56604;48.652;9.194;2023-09-19T02:10:43;95988.91;;;15.95;93.22
69411;BME280;56604;48.652;9.194;2023-09-19T02:13:15;95991.63;;;15.90;94.03
69411;BME280;56604;48.652;9.194;2023-09-19T02:15:42;95993.94;;;15.78;93.89
69411;BME280;56604;48.652;9.194;2023-09-19T02:18:09;95996.38;;;15.74;94.28
69411;BME280;56604;48.652;9.194;2023-09-19T02:20:34;95997.09;;;15.80;94.36
69411;BME280;56604;48.652;9.194;2023-09-19T02:22:59;95992.22;;;15.68;94.60
69411;BME280;56604;48.652;9.194;2023-09-19T02:25:25;95999.72;;;15.61;94.26
69411;BME280;56604;48.652;9.194;2023-09-19T02:27:52;96005.59;;;15.58;94.77
69411;BME280;56604;48.652;9.194;2023-09-19T02:30:19;96001.19;;;15.48;95.46
69411;BME280;56604;48.652;9.194;2023-09-19T02:32:46;96015.84;;;15.45;95.46
69411;BME280;56604;48.652;9.194;2023-09-19T02:35:11;96021.53;;;15.34;95.77
69411;BME280;56604;48.652;9.194;2023-09-19T02:37:37;96021.13;;;15.45;95.85
69411;BME280;56604;48.652;9.194;2023-09-19T02:40:03;96019.84;;;15.43;95.83
69411;BME280;56604;48.652;9.194;2023-09-19T02:42:43;96015.53;;;15.47;95.81
69411;BME280;56604;48.652;9.194;2023-09-19T02:45:12;96017.81;;;15.35;95.72
69411;BME280;56604;48.652;9.194;2023-09-19T02:47:40;96014.59;;;15.38;96.39
69411;BME280;56604;48.652;9.194;2023-09-19T02:50:05;96016.31;;;15.28;96.57
69411;BME280;56604;48.652;9.194;2023-09-19T02:52:31;96019.34;;;15.17;96.99
69411;BME280;56604;48.652;9.194;2023-09-19T02:54:56;96023.53;;;15.23;97.36
69411;BME280;56604;48.652;9.194;2023-09-19T02:57:22;96020.63;;;15.19;97.11
69411;BME280;56604;48.652;9.194;2023-09-19T02:59:49;96026.34;;;15.07;98.07
69411;BME280;56604;48.652;9.194;2023-09-19T03:02:14;96018.41;;;15.07;97.88
69411;BME280;56604;48.652;9.194;2023-09-19T03:04:41;96022.13;;;15.06;98.46
69411;BME280;56604;48.652;9.194;2023-09-19T03:07:06;96022.22;;;15.20;98.39
69411;BME280;56604;48.652;9.194;2023-09-19T03:09:31;96021.22;;;15.16;98.00
69411;BME280;56604;48.652;9.194;2023-09-19T03:11:57;96023.78;;;15.21;97.81
69411;BME280;56604;48.652;9.194;2023-09-19T03:14:23;96025.81;;;15.29;97.80
69411;BME280;56604;48.652;9.194;2023-09-19T03:16:48;96025.38;;;15.22;97.77
69411;BME280;56604;48.652;9.194;2023-09-19T03:19:14;96025.38;;;15.22;98.08
69411;BME280;56604;48.652;9.194;2023-09-19T03:21:40;96027.38;;;15.30;98.31
69411;BME280;56604;48.652;9.194;2023-09-19T03:24:05;96023.91;;;15.35;97.53
69411;BME280;56604;48.652;9.194;2023-09-19T03:26:31;96028.06;;;15.41;97.08
69411;BME280;56604;48.652;9.194;2023-09-19T03:28:57;96025.34;;;15.46;96.83
69411;BME280;56604;48.652;9.194;2023-09-19T03:31:22;96015.53;;;15.47;96.58
69411;BME280;56604;48.652;9.194;2023-09-19T03:33:47;96023.41;;;15.52;96.57
69411;BME280;56604;48.652;9.194;2023-09-19T03:36:13;96024.25;;;15.47;96.26
69411;BME280;56604;48.652;9.194;2023-09-19T03:38:41;96023.41;;;15.52;96.09
69411;BME280;56604;48.652;9.194;2023-09-19T03:41:06;96028.72;;;15.52;96.39
69411;BME280;56604;48.652;9.194;2023-09-19T03:43:32;96026.56;;;15.54;95.67
69411;BME280;56604;48.652;9.194;2023-09-19T03:46:01;96014.13;;;15.55;95.62
69411;BME280;56604;48.652;9.194;2023-09-19T03:48:28;96030.94;;;15.64;95.50
69411;BME280;56604;48.652;9.194;2023-09-19T03:50:53;96028.47;;;15.72;95.23
69411;BME280;56604;48.652;9.194;2023-09-19T03:53:21;96031.97;;;15.68;95.29
69411;BME280;56604;48.652;9.194;2023-09-19T03:55:47;96029.03;;;15.69;95.57
69411;BME280;56604;48.652;9.194;2023-09-19T03:58:12;96029.53;;;15.71;95.30
69411;BME280;56604;48.652;9.194;2023-09-19T04:00:38;96026.81;;;15.77;94.99
69411;BME280;56604;48.652;9.194;2023-09-19T04:03:03;96023.59;;;15.80;94.68
69411;BME280;56604;48.652;9.194;2023-09-19T04:05:31;96018.19;;;15.66;94.63
69411;BME280;56604;48.652;9.194;2023-09-19T04:07:57;96013.78;;;15.80;94.47
69411;BME280;56604;48.652;9.194;2023-09-19T04:10:23;96020.66;;;15.81;94.67
69411;BME280;56604;48.652;9.194;2023-09-19T04:12:55;96023.09;;;15.78;94.57
69411;BME280;56604;48.652;9.194;2023-09-19T04:15:21;96022.66;;;15.70;94.00
69411;BME280;56604;48.652;9.194;2023-09-19T04:17:49;96017.88;;;15.72;94.66
69411;BME280;56604;48.652;9.194;2023-09-19T04:20:14;96019.84;;;15.43;95.40
69411;BME280;56604;48.652;9.194;2023-09-19T04:22:41;96027.69;;;15.48;95.84
69411;BME280;56604;48.652;9.194;2023-09-19T04:25:06;96031.47;;;15.42;96.27
69411;BME280;56604;48.652;9.194;2023-09-19T04:27:32;96032.00;;;15.44;96.23
69411;BME280;56604;48.652;9.194;2023-09-19T04:29:57;96025.13;;;15.43;96.38
69411;BME280;56604;48.652;9.194;2023-09-19T04:32:24;96032.13;;;15.34;96.62
69411;BME280;56604;48.652;9.194;2023-09-19T04:34:49;96037.34;;;15.39;96.53
69411;BME280;56604;48.652;9.194;2023-09-19T04:37:15;96030.75;;;15.36;96.93
69411;BME280;56604;48.652;9.194;2023-09-19T04:39:41;96036.94;;;15.32;96.68
69411;BME280;56604;48.652;9.194;2023-09-19T04:42:06;96032.78;;;15.25;96.96
69411;BME280;56604;48.652;9.194;2023-09-19T04:44:31;96035.19;;;15.22;97.77
69411;BME280;56604;48.652;9.194;2023-09-19T04:46:56;96040.53;;;15.17;97.44
69411;BME280;56604;48.652;9.194;2023-09-19T04:49:22;96042.75;;;15.10;98.32
69411;BME280;56604;48.652;9.194;2023-09-19T04:51:48;96037.72;;;15.08;97.91
69411;BME280;56604;48.652;9.194;2023-09-19T04:54:13;96044.09;;;15.07;98.60
69411;BME280;56604;48.652;9.194;2023-09-19T04:56:40;96048.19;;;15.18;98.12
69411;BME280;56604;48.652;9.194;2023-09-19T04:59:05;96048.16;;;15.23;98.20
69411;BME280;56604;48.652;9.194;2023-09-19T05:01:31;96059.16;;;15.30;98.18
69411;BME280;56604;48.652;9.194;2023-09-19T05:03:56;96050.50;;;15.25;97.97
69411;BME280;56604;48.652;9.194;2023-09-19T05:06:22;96057.50;;;15.40;97.58
69411;BME280;56604;48.652;9.194;2023-09-19T05:08:49;96061.41;;;15.42;97.24
69411;BME280;56604;48.652;9.194;2023-09-19T05:11:17;96059.94;;;15.55;97.33
69411;BME280;56604;48.652;9.194;2023-09-19T05:13:43;96071.31;;;15.56;97.11
69411;BME280;56604;48.652;9.194;2023-09-19T05:16:08;96079.59;;;15.73;96.91
69411;BME280;56604;48.652;9.194;2023-09-19T05:18:35;96072.94;;;15.76;96.66
69411;BME280;56604;48.652;9.194;2023-09-19T05:21:02;96074.38;;;15.68;97.38
69411;BME280;56604;48.652;9.194;2023-09-19T05:23:27;96090.50;;;15.71;97.44
69411;BME280;56604;48.652;9.194;2023-09-19T05:25:53;96083.66;;;15.65;97.68
69411;BME280;56604;48.652;9.194;2023-09-19T05:28:19;96087.38;;;15.64;97.76
69411;BME280;56604;48.652;9.194;2023-09-19T05:30:45;96092.06;;;15.72;98.03
69411;BME280;56604;48.652;9.194;2023-09-19T05:33:11;96091.44;;;15.81;97.65
69411;BME280;56604;48.652;9.194;2023-09-19T05:35:37;96087.28;;;15.74;97.61
69411;BME280;56604;48.652;9.194;2023-09-19T05:38:05;96091.50;;;15.76;97.62
69411;BME280;56604;48.652;9.194;2023-09-19T05:40:33;96094.75;;;15.67;97.96
69411;BME280;56604;48.652;9.194;2023-09-19T05:42:59;96101.75;;;15.58;98.62
69411;BME280;56604;48.652;9.194;2023-09-19T05:45:25;96099.38;;;15.38;99.39
69411;BME280;56604;48.652;9.194;2023-09-19T05:47:51;96095.25;;;15.26;100.00
69411;BME280;56604;48.652;9.194;2023-09-19T05:50:21;96102.69;;;15.48;100.00
69411;BME280;56604;48.652;9.194;2023-09-19T05:52:52;96111.47;;;15.68;99.52
69411;BME280;56604;48.652;9.194;2023-09-19T05:55:17;96110.44;;;15.64;99.14
69411;BME280;56604;48.652;9.194;2023-09-19T05:57:43;96114.19;;;15.63;99.09
69411;BME280;56604;48.652;9.194;2023-09-19T06:00:09;96122.78;;;15.73;99.30
69411;BME280;56604;48.652;9.194;2023-09-19T06:02:37;96114.84;;;15.73;99.04
69411;BME280;56604;48.652;9.194;2023-09-19T06:05:04;96118.78;;;15.76;98.82
69411;BME280;56604;48.652;9.194;2023-09-19T06:07:32;96117.16;;;15.99;97.85
69411;BME280;56604;48.652;9.194;2023-09-19T06:10:04;96130.41;;;15.80;97.80
69411;BME280;56604;48.652;9.194;2023-09-19T06:12:37;96122.34;;;16.09;96.77
69411;BME280;56604;48.652;9.194;2023-09-19T06:15:04;96136.09;;;16.11;97.08
69411;BME280;56604;48.652;9.194;2023-09-19T06:17:31;96138.09;;;16.01;97.57
69411;BME280;56604;48.652;9.194;2023-09-19T06:19:56;96138.38;;;15.99;97.69
69411;BME280;56604;48.652;9.194;2023-09-19T06:22:21;96148.41;;;16.02;97.65
69411;BME280;56604;48.652;9.194;2023-09-19T06:24:47;96145.41;;;15.90;97.81
69411;BME280;56604;48.652;9.194;2023-09-19T06:27:12;96152.75;;;16.17;97.10
69411;BME280;56604;48.652;9.194;2023-09-19T06:29:38;96155.03;;;16.24;96.83
69411;BME280;56604;48.652;9.194;2023-09-19T06:32:08;96163.63;;;16.15;96.64
69411;BME280;56604;48.652;9.194;2023-09-19T06:34:34;96164.28;;;16.26;96.92
69411;BME280;56604;48.652;9.194;2023-09-19T06:36:59;96165.19;;;16.16;96.40
69411;BME280;56604;48.652;9.194;2023-09-19T06:39:25;96175.88;;;16.11;96.17
69411;BME280;56604;48.652;9.194;2023-09-19T06:41:51;96172.66;;;16.14;96.54
69411;BME280;56604;48.652;9.194;2023-09-19T06:44:18;96180.75;;;16.23;96.95
69411;BME280;56604;48.652;9.194;2023-09-19T06:46:46;96176.13;;;16.34;96.71
69411;BME280;56604;48.652;9.194;2023-09-19T06:49:15;96172.50;;;16.62;95.41
69411;BME280;56604;48.652;9.194;2023-09-19T06:51:40;96165.00;;;17.02;93.01
69411;BME280;56604;48.652;9.194;2023-09-19T06:54:07;96177.06;;;17.55;91.21
69411;BME280;56604;48.652;9.194;2023-09-19T06:56:32;96178.25;;;18.04;87.99
69411;BME280;56604;48.652;9.194;2023-09-19T06:58:58;96180.94;;;18.40;85.05
69411;BME280;56604;48.652;9.194;2023-09-19T07:01:23;96178.41;;;18.58;82.98
69411;BME280;56604;48.652;9.194;2023-09-19T07:03:48;96182.16;;;18.93;81.36
69411;BME280;56604;48.652;9.194;2023-09-19T07:06:13;96187.50;;;19.24;80.93
69411;BME280;56604;48.652;9.194;2023-09-19T07:08:39;96187.06;;;19.62;79.04
69411;BME280;56604;48.652;9.194;2023-09-19T07:11:04;96188.31;;;20.13;76.78
69411;BME280;56604;48.652;9.194;2023-09-19T07:13:31;96193.56;;;20.44;75.94
69411;BME280;56604;48.652;9.194;2023-09-19T07:15:58;96197.34;;;20.52;75.61
69411;BME280;56604;48.652;9.194;2023-09-19T07:18:24;96200.97;;;19.82;76.95
69411;BME280;56604;48.652;9.194;2023-09-19T07:20:50;96202.19;;;19.75;77.82
69411;BME280;56604;48.652;9.194;2023-09-19T07:23:18;96204.25;;;19.47;77.17
69411;BME280;56604;48.652;9.194;2023-09-19T07:25:44;96209.63;;;19.25;80.73
69411;BME280;56604;48.652;9.194;2023-09-19T07:28:09;96215.69;;;20.28;76.31
69411;BME280;56604;48.652;9.194;2023-09-19T07:30:37;96221.16;;;20.22;75.28
69411;BME280;56604;48.652;9.194;2023-09-19T07:33:04;96222.44;;;20.51;75.49
69411;BME280;56604;48.652;9.194;2023-09-19T07:35:30;96222.63;;;19.89;77.55
69411;BME280;56604;48.652;9.194;2023-09-19T07:37:56;96231.22;;;20.26;76.45
69411;BME280;56604;48.652;9.194;2023-09-19T07:40:22;96231.47;;;20.90;75.98
69411;BME280;56604;48.652;9.194;2023-09-19T07:42:49;96227.63;;;21.34;72.22
69411;BME280;56604;48.652;9.194;2023-09-19T07:45:15;96226.06;;;21.25;72.31
69411;BME280;56604;48.652;9.194;2023-09-19T07:47:46;96224.06;;;21.77;71.15
69411;BME280;56604;48.652;9.194;2023-09-19T07:50:15;96226.94;;;21.64;69.81
69411;BME280;56604;48.652;9.194;2023-09-19T07:52:41;96237.69;;;21.93;69.59
69411;BME280;56604;48.652;9.194;2023-09-19T07:55:08;96230.03;;;22.13;67.98
69411;BME280;56604;48.652;9.194;2023-09-19T07:57:35;96232.56;;;22.39;67.39
69411;BME280;56604;48.652;9.194;2023-09-19T08:00:00;96234.16;;;22.40;66.38
69411;BME280;56604;48.652;9.194;2023-09-19T08:02:25;96240.44;;;22.06;67.27
69411;BME280;56604;48.652;9.194;2023-09-19T08:04:53;96240.44;;;22.65;65.04
69411;BME280;56604;48.652;9.194;2023-09-19T08:07:18;96242.59;;;22.93;64.23
69411;BME280;56604;48.652;9.194;2023-09-19T08:09:44;96246.63;;;23.53;63.06
69411;BME280;56604;48.652;9.194;2023-09-19T08:12:13;96247.63;;;24.06;61.89
69411;BME280;56604;48.652;9.194;2023-09-19T08:14:40;96250.06;;;24.36;60.96
69411;BME280;56604;48.652;9.194;2023-09-19T08:17:07;96255.91;;;24.26;60.59
69411;BME280;56604;48.652;9.194;2023-09-19T08:19:33;96250.09;;;24.48;60.12
69411;BME280;56604;48.652;9.194;2023-09-19T08:21:58;96250.31;;;23.94;60.97
69411;BME280;56604;48.652;9.194;2023-09-19T08:24:28;96260.28;;;23.60;61.31
69411;BME280;56604;48.652;9.194;2023-09-19T08:26:57;96260.38;;;24.21;58.99
69411;BME280;56604;48.652;9.194;2023-09-19T08:29:24;96251.97;;;24.48;58.13
69411;BME280;56604;48.652;9.194;2023-09-19T08:31:58;96259.84;;;23.58;59.65
69411;BME280;56604;48.652;9.194;2023-09-19T08:34:25;96259.13;;;24.56;57.28
69411;BME280;56604;48.652;9.194;2023-09-19T08:36:53;96267.66;;;24.09;58.20
69411;BME280;56604;48.652;9.194;2023-09-19T08:39:22;96264.84;;;23.93;57.95
69411;BME280;56604;48.652;9.194;2023-09-19T08:41:48;96269.59;;;24.45;56.21
69411;BME280;56604;48.652;9.194;2023-09-19T08:44:13;96263.25;;;23.34;57.25
69411;BME280;56604;48.652;9.194;2023-09-19T08:46:41;96264.06;;;23.47;58.35
69411;BME280;56604;48.652;9.194;2023-09-19T08:52:22;96277.38;;;22.30;61.09
69411;BME280;56604;48.652;9.194;2023-09-19T08:54:52;96275.84;;;22.50;59.98
69411;BME280;56604;48.652;9.194;2023-09-19T08:57:21;96287.59;;;21.98;62.15
69411;BME280;56604;48.652;9.194;2023-09-19T08:59:48;96282.44;;;22.22;60.86
69411;BME280;56604;48.652;9.194;2023-09-19T09:02:15;96286.75;;;22.74;57.77
69411;BME280;56604;48.652;9.194;2023-09-19T09:04:41;96282.03;;;23.13;55.31
69411;BME280;56604;48.652;9.194;2023-09-19T09:07:12;96277.16;;;23.94;56.80
69411;BME280;56604;48.652;9.194;2023-09-19T09:09:42;96281.53;;;24.11;55.26
69411;BME280;56604;48.652;9.194;2023-09-19T09:12:13;96284.19;;;24.72;52.06
69411;BME280;56604;48.652;9.194;2023-09-19T09:14:39;96287.59;;;24.57;52.93
69411;BME280;56604;48.652;9.194;2023-09-19T09:17:05;96284.47;;;25.07;54.26
69411;BME280;56604;48.652;9.194;2023-09-19T09:19:30;96289.84;;;25.35;52.21
69411;BME280;56604;48.652;9.194;2023-09-19T09:22:06;96288.97;;;25.60;52.18
69411;BME280;56604;48.652;9.194;2023-09-19T09:24:31;96286.75;;;25.49;50.23
69411;BME280;56604;48.652;9.194;2023-09-19T09:27:04;96287.69;;;24.60;51.79
69411;BME280;56604;48.652;9.194;2023-09-19T09:29:47;96286.13;;;23.65;53.15
69411;BME280;56604;48.652;9.194;2023-09-19T09:32:20;96293.06;;;21.63;57.04
69411;BME280;56604;48.652;9.194;2023-09-19T09:34:59;96290.31;;;21.89;55.74
69411;BME280;56604;48.652;9.194;2023-09-19T09:37:25;96298.44;;;21.11;57.63
69411;BME280;56604;48.652;9.194;2023-09-19T09:39:59;96285.53;;;21.30;57.83
69411;BME280;56604;48.652;9.194;2023-09-19T09:42:44;96289.75;;;21.58;57.15
69411;BME280;56604;48.652;9.194;2023-09-19T09:45:16;96281.22;;;22.71;56.10
69411;BME280;56604;48.652;9.194;2023-09-19T09:48:13;96274.97;;;22.66;54.44
69411;BME280;56604;48.652;9.194;2023-09-19T09:50:46;96277.38;;;22.30;54.26
69411;BME280;56604;48.652;9.194;2023-09-19T09:56:08;96279.66;;;21.72;54.29
69411;BME280;56604;48.652;9.194;2023-09-19T10:01:13;96278.84;;;21.80;55.91
69411;BME280;56604;48.652;9.194;2023-09-19T10:03:41;96275.31;;;22.35;54.29
69411;BME280;56604;48.652;9.194;2023-09-19T10:06:14;96272.66;;;22.56;51.28
69411;BME280;56604;48.652;9.194;2023-09-19T10:09:01;96270.84;;;22.90;51.74
69411;BME280;56604;48.652;9.194;2023-09-19T10:12:02;96283.00;;;22.87;50.41
69411;BME280;56604;48.652;9.194;2023-09-19T10:14:30;96288.00;;;23.52;50.15
69411;BME280;56604;48.652;9.194;2023-09-19T10:16:58;96285.78;;;23.99;50.97
69411;BME280;56604;48.652;9.194;2023-09-19T10:19:56;96282.66;;;23.97;48.71
69411;BME280;56604;48.652;9.194;2023-09-19T10:22:31;96290.50;;;24.02;48.93
69411;BME280;56604;48.652;9.194;2023-09-19T10:24:57;96282.16;;;23.38;48.99
69411;BME280;56604;48.652;9.194;2023-09-19T10:27:26;96276.31;;;23.69;48.67
69411;BME280;56604;48.652;9.194;2023-09-19T10:29:52;96276.44;;;23.06;48.99
69411;BME280;56604;48.652;9.194;2023-09-19T10:32:22;96280.69;;;23.07;50.58
69411;BME280;56604;48.652;9.194;2023-09-19T10:34:49;96279.00;;;22.73;49.60
69411;BME280;56604;48.652;9.194;2023-09-19T10:37:16;96274.47;;;23.15;50.00
69411;BME280;56604;48.652;9.194;2023-09-19T10:39:46;96276.28;;;23.02;50.66
69411;BME280;56604;48.652;9.194;2023-09-19T10:42:19;96275.28;;;22.65;51.00
69411;BME280;56604;48.652;9.194;2023-09-19T10:44:45;96274.84;;;22.84;50.09
69411;BME280;56604;48.652;9.194;2023-09-19T10:47:12;96280.53;;;23.24;50.66
69411;BME280;56604;48.652;9.194;2023-09-19T10:49:46;96276.78;;;23.38;48.07
69411;BME280;56604;48.652;9.194;2023-09-19T10:52:15;96276.09;;;23.28;49.28
69411;BME280;56604;48.652;9.194;2023-09-19T10:54:47;96286.16;;;22.89;49.66
69411;BME280;56604;48.652;9.194;2023-09-19T10:57:20;96279.97;;;22.98;49.95
69411;BME280;56604;48.652;9.194;2023-09-19T11:00:05;96277.88;;;23.03;50.63
69411;BME280;56604;48.652;9.194;2023-09-19T11:03:17;96278.94;;;22.81;49.69
69411;BME280;56604;48.652;9.194;2023-09-19T11:06:00;96270.00;;;22.77;49.87
69411;BME280;56604;48.652;9.194;2023-09-19T11:08:26;96264.78;;;22.60;52.47
69411;BME280;56604;48.652;9.194;2023-09-19T11:10:52;96276.38;;;22.43;51.45
69411;BME280;56604;48.652;9.194;2023-09-19T11:13:28;96278.59;;;22.62;51.71
69411;BME280;56604;48.652;9.194;2023-09-19T11:26:45;96251.03;;;22.82;50.78
69411;BME280;56604;48.652;9.194;2023-09-19T11:29:31;96249.56;;;23.27;50.86
69411;BME280;56604;48.652;9.194;2023-09-19T11:31:57;96255.09;;;23.43;50.03
69411;BME280;56604;48.652;9.194;2023-09-19T11:40:05;96254.31;;;23.75;49.57
69411;BME280;56604;48.652;9.194;2023-09-19T11:42:47;96251.16;;;23.73;49.41
69411;BME280;56604;48.652;9.194;2023-09-19T11:48:13;96252.53;;;23.79;49.13
69411;BME280;56604;48.652;9.194;2023-09-19T11:50:42;96263.03;;;23.85;48.58
69411;BME280;56604;48.652;9.194;2023-09-19T11:53:10;96253.22;;;23.89;50.15
69411;BME280;56604;48.652;9.194;2023-09-19T11:55:40;96257.22;;;23.83;48.78
69411;BME280;56604;48.652;9.194;2023-09-19T11:58:08;96248.06;;;23.84;49.35
69411;BME280;56604;48.652;9.194;2023-09-19T12:00:35;96248.03;;;23.38;49.80
69411;BME280;56604;48.652;9.194;2023-09-19T12:03:08;96248.69;;;23.23;50.75
69411;BME280;56604;48.652;9.194;2023-09-19T12:05:37;96250.06;;;23.41;50.91
69411;BME280;56604;48.652;9.194;2023-09-19T12:08:07;96240.38;;;23.49;50.67
69411;BME280;56604;48.652;9.194;2023-09-19T12:10:45;96235.06;;;23.73;50.20
69411;BME280;56604;48.652;9.194;2023-09-19T12:13:16;96240.78;;;24.09;49.86
69411;BME280;56604;48.652;9.194;2023-09-19T12:15:41;96239.44;;;23.90;50.17
69411;BME280;56604;48.652;9.194;2023-09-19T12:18:10;96233.38;;;24.30;49.02
69411;BME280;56604;48.652;9.194;2023-09-19T12:20:43;96227.88;;;23.65;49.09
69411;BME280;56604;48.652;9.194;2023-09-19T12:23:15;96229.19;;;23.59;50.11
69411;BME280;56604;48.652;9.194;2023-09-19T12:25:44;96229.03;;;23.31;50.61
69411;BME280;56604;48.652;9.194;2023-09-19T12:28:12;96224.84;;;23.21;51.74
69411;BME280;56604;48.652;9.194;2023-09-19T12:30:38;96220.25;;;22.88;52.38
69411;BME280;56604;48.652;9.194;2023-09-19T12:33:18;96218.94;;;22.95;51.94
69411;BME280;56604;48.652;9.194;2023-09-19T12:35:50;96219.00;;;22.65;52.02
69411;BME280;56604;48.652;9.194;2023-09-19T12:38:26;96213.69;;;22.35;52.04
69411;BME280;56604;48.652;9.194;2023-09-19T12:40:58;96218.19;;;22.14;53.83
69411;BME280;56604;48.652;9.194;2023-09-19T12:43:25;96207.16;;;22.24;52.87
69411;BME280;56604;48.652;9.194;2023-09-19T12:45:52;96213.69;;;22.35;53.04
69411;BME280;56604;48.652;9.194;2023-09-19T12:48:25;96205.72;;;22.48;52.67
69411;BME280;56604;48.652;9.194;2023-09-19T12:53:39;96206.03;;;22.25;54.68
69411;BME280;56604;48.652;9.194;2023-09-19T12:56:17;96190.31;;;22.15;54.39
69411;BME280;56604;48.652;9.194;2023-09-19T12:58:56;96200.03;;;22.28;53.53
69411;BME280;56604;48.652;9.194;2023-09-19T13:01:23;96199.53;;;22.35;53.25
69411;BME280;56604;48.652;9.194;2023-09-19T13:04:21;96197.16;;;22.33;53.12
69411;BME280;56604;48.652;9.194;2023-09-19T13:06:54;96190.50;;;22.39;53.92
69411;BME280;56604;48.652;9.194;2023-09-19T13:09:24;96190.78;;;22.26;53.50
69411;BME280;56604;48.652;9.194;2023-09-19T13:11:53;96189.47;;;22.32;54.19
69411;BME280;56604;48.652;9.194;2023-09-19T13:14:23;96194.28;;;22.38;53.54
69411;BME280;56604;48.652;9.194;2023-09-19T13:16:56;96192.09;;;22.40;53.47
69411;BME280;56604;48.652;9.194;2023-09-19T13:19:38;96190.13;;;22.29;54.54
69411;BME280;56604;48.652;9.194;2023-09-19T13:22:06;96199.91;;;22.16;54.46
69411;BME280;56604;48.652;9.194;2023-09-19T13:24:50;96194.66;;;22.28;53.47
69411;BME280;56604;48.652;9.194;2023-09-19T13:27:16;96192.41;;;22.39;55.28
69411;BME280;56604;48.652;9.194;2023-09-19T13:29:42;96191.81;;;22.33;53.84
69411;BME280;56604;48.652;9.194;2023-09-19T13:32:07;96191.56;;;22.26;53.21
69411;BME280;56604;48.652;9.194;2023-09-19T13:34:36;96178.34;;;22.21;52.11
69411;BME280;56604;48.652;9.194;2023-09-19T13:37:03;96184.53;;;22.34;52.04
69411;BME280;56604;48.652;9.194;2023-09-19T13:39:29;96185.53;;;22.29;52.06
69411;BME280;56604;48.652;9.194;2023-09-19T13:41:54;96174.88;;;22.20;51.87
69411;BME280;56604;48.652;9.194;2023-09-19T13:44:20;96172.03;;;22.17;53.09
69411;BME280;56604;48.652;9.194;2023-09-19T13:46:45;96183.59;;;22.09;52.41
69411;BME280;56604;48.652;9.194;2023-09-19T13:49:11;96176.66;;;22.37;53.43
69411;BME280;56604;48.652;9.194;2023-09-19T13:51:36;96170.00;;;22.43;52.54